Disclaimer

Please do not use the information listed here in-flight or in-navigation, as they are not provided to us by the airports but are provided by volunteers, so they might be outdated.

Search


Regions


Airport information page

No radio frequency information is available.

Airport informations:
Latitude: 11° 59' 53.35" N
Longitude: 109° 13' 09.74" E
Elevation: 40 feet - 12 meters
Operating hours: N/A
Operating agency: Civil government, landing fees and diplomatic clearance may be required
Timezone: UTC+7
Fuel: N/A

Runway information:
02/20 - 10000 x 150 feet< - >3048 x 46 meters

Recent METARs:
VVCR 180530Z AUTO 09014KT 9999 SCT008 FEW015CB BKN040 28/27 Q1011 NOSIG RMK CB/N
VVCR 180600Z AUTO 09012KT 9999 FEW008 FEW015CB BKN040 28/27 Q1011 NOSIG RMK CB/N
VVCR 180630Z AUTO 09008KT 9999 FEW008 FEW015CB BKN040 28/27 Q1011 NOSIG RMK CB/N

Airport on the map: